sensor_id;sensor_type;location;lat;lon;timestamp;temperature;humidity
74511;DHT22;62991;50.040;18.400;2023-02-15T00:01:10;7.10;57.30
74511;DHT22;62991;50.040;18.400;2023-02-15T00:04:16;7.10;57.00
74511;DHT22;62991;50.040;18.400;2023-02-15T00:07:19;7.10;57.20
74511;DHT22;62991;50.040;18.400;2023-02-15T00:10:19;7.00;57.50
74511;DHT22;62991;50.040;18.400;2023-02-15T00:13:20;7.00;57.50
74511;DHT22;62991;50.040;18.400;2023-02-15T00:16:21;7.00;57.30
74511;DHT22;62991;50.040;18.400;2023-02-15T00:19:21;7.10;57.10
74511;DHT22;62991;50.040;18.400;2023-02-15T00:22:22;7.10;57.10
74511;DHT22;62991;50.040;18.400;2023-02-15T00:25:23;7.10;57.20
74511;DHT22;62991;50.040;18.400;2023-02-15T00:28:23;7.00;57.40
74511;DHT22;62991;50.040;18.400;2023-02-15T00:31:25;7.00;57.50
74511;DHT22;62991;50.040;18.400;2023-02-15T00:34:27;6.90;57.60
74511;DHT22;62991;50.040;18.400;2023-02-15T00:37:28;6.90;57.70
74511;DHT22;62991;50.040;18.400;2023-02-15T00:40:29;6.80;57.70
74511;DHT22;62991;50.040;18.400;2023-02-15T00:43:31;6.80;57.90
74511;DHT22;62991;50.040;18.400;2023-02-15T00:46:32;6.80;57.80
74511;DHT22;62991;50.040;18.400;2023-02-15T00:49:33;6.70;58.00
74511;DHT22;62991;50.040;18.400;2023-02-15T00:52:34;6.70;57.90
74511;DHT22;62991;50.040;18.400;2023-02-15T00:55:34;6.70;57.80
74511;DHT22;62991;50.040;18.400;2023-02-15T00:58:36;6.50;58.50
74511;DHT22;62991;50.040;18.400;2023-02-15T01:01:37;6.50;58.60
74511;DHT22;62991;50.040;18.400;2023-02-15T01:04:37;6.50;58.40
74511;DHT22;62991;50.040;18.400;2023-02-15T01:07:38;6.40;58.60
74511;DHT22;62991;50.040;18.400;2023-02-15T01:10:39;6.40;58.70
74511;DHT22;62991;50.040;18.400;2023-02-15T01:13:40;6.40;58.80
74511;DHT22;62991;50.040;18.400;2023-02-15T01:16:41;6.30;58.70
74511;DHT22;62991;50.040;18.400;2023-02-15T01:19:42;6.30;58.90
74511;DHT22;62991;50.040;18.400;2023-02-15T01:22:43;6.30;58.90
74511;DHT22;62991;50.040;18.400;2023-02-15T01:25:44;6.20;59.00
74511;DHT22;62991;50.040;18.400;2023-02-15T01:28:45;6.20;59.30
74511;DHT22;62991;50.040;18.400;2023-02-15T01:31:45;6.10;59.40
74511;DHT22;62991;50.040;18.400;2023-02-15T01:34:46;6.00;59.50
74511;DHT22;62991;50.040;18.400;2023-02-15T01:37:47;6.10;59.50
74511;DHT22;62991;50.040;18.400;2023-02-15T01:40:51;6.00;59.50
74511;DHT22;62991;50.040;18.400;2023-02-15T01:43:58;5.90;59.90
74511;DHT22;62991;50.040;18.400;2023-02-15T01:46:59;5.90;59.90
74511;DHT22;62991;50.040;18.400;2023-02-15T01:50:13;6.00;59.80
74511;DHT22;62991;50.040;18.400;2023-02-15T01:53:48;5.90;59.90
74511;DHT22;62991;50.040;18.400;2023-02-15T01:56:53;5.90;59.90
74511;DHT22;62991;50.040;18.400;2023-02-15T01:59:57;5.90;60.00
74511;DHT22;62991;50.040;18.400;2023-02-15T02:03:00;5.80;60.20
74511;DHT22;62991;50.040;18.400;2023-02-15T02:06:02;5.80;60.10
74511;DHT22;62991;50.040;18.400;2023-02-15T02:09:02;5.80;60.20
74511;DHT22;62991;50.040;18.400;2023-02-15T02:12:03;5.80;60.10
74511;DHT22;62991;50.040;18.400;2023-02-15T02:15:05;5.80;60.00
74511;DHT22;62991;50.040;18.400;2023-02-15T02:21:49;5.70;60.30
74511;DHT22;62991;50.040;18.400;2023-02-15T02:31:39;5.50;61.00
74511;DHT22;62991;50.040;18.400;2023-02-15T02:41:26;5.30;61.50
74511;DHT22;62991;50.040;18.400;2023-02-15T02:47:53;5.10;62.10
74511;DHT22;62991;50.040;18.400;2023-02-15T02:50:52;5.20;62.00
74511;DHT22;62991;50.040;18.400;2023-02-15T02:53:55;5.20;61.90
74511;DHT22;62991;50.040;18.400;2023-02-15T02:56:59;5.20;62.00
74511;DHT22;62991;50.040;18.400;2023-02-15T03:00:03;5.20;61.80
74511;DHT22;62991;50.040;18.400;2023-02-15T03:06:24;5.10;61.90
74511;DHT22;62991;50.040;18.400;2023-02-15T03:09:38;5.20;62.00
74511;DHT22;62991;50.040;18.400;2023-02-15T03:12:42;5.20;61.90
74511;DHT22;62991;50.040;18.400;2023-02-15T03:15:44;5.20;61.80
74511;DHT22;62991;50.040;18.400;2023-02-15T03:19:05;5.20;61.80
74511;DHT22;62991;50.040;18.400;2023-02-15T03:22:15;5.20;61.50
74511;DHT22;62991;50.040;18.400;2023-02-15T03:25:25;5.20;61.50
74511;DHT22;62991;50.040;18.400;2023-02-15T03:28:33;5.10;61.70
74511;DHT22;62991;50.040;18.400;2023-02-15T03:31:38;5.00;62.00
74511;DHT22;62991;50.040;18.400;2023-02-15T03:34:41;5.00;62.20
74511;DHT22;62991;50.040;18.400;2023-02-15T03:37:47;5.00;62.10
74511;DHT22;62991;50.040;18.400;2023-02-15T03:40:50;5.10;62.00
74511;DHT22;62991;50.040;18.400;2023-02-15T03:44:18;5.00;62.00
74511;DHT22;62991;50.040;18.400;2023-02-15T03:47:34;5.00;62.30
74511;DHT22;62991;50.040;18.400;2023-02-15T03:50:37;5.00;62.20
74511;DHT22;62991;50.040;18.400;2023-02-15T03:53:57;5.00;62.10
74511;DHT22;62991;50.040;18.400;2023-02-15T03:56:59;5.10;62.10
74511;DHT22;62991;50.040;18.400;2023-02-15T04:00:22;5.10;62.00
74511;DHT22;62991;50.040;18.400;2023-02-15T04:03:46;5.10;61.90
74511;DHT22;62991;50.040;18.400;2023-02-15T04:06:49;5.00;62.00
74511;DHT22;62991;50.040;18.400;2023-02-15T04:09:50;5.00;62.10
74511;DHT22;62991;50.040;18.400;2023-02-15T04:13:09;5.00;62.10
74511;DHT22;62991;50.040;18.400;2023-02-15T04:16:10;4.90;62.20
74511;DHT22;62991;50.040;18.400;2023-02-15T04:19:10;4.90;62.40
74511;DHT22;62991;50.040;18.400;2023-02-15T04:22:29;4.80;62.60
74511;DHT22;62991;50.040;18.400;2023-02-15T04:25:49;4.90;62.50
74511;DHT22;62991;50.040;18.400;2023-02-15T04:28:49;4.90;62.50
74511;DHT22;62991;50.040;18.400;2023-02-15T04:31:52;4.80;62.50
74511;DHT22;62991;50.040;18.400;2023-02-15T04:34:53;4.80;62.70
74511;DHT22;62991;50.040;18.400;2023-02-15T04:37:53;4.80;62.50
74511;DHT22;62991;50.040;18.400;2023-02-15T04:40:54;4.80;62.60
74511;DHT22;62991;50.040;18.400;2023-02-15T04:43:55;4.80;62.40
74511;DHT22;62991;50.040;18.400;2023-02-15T04:46:56;4.70;62.70
74511;DHT22;62991;50.040;18.400;2023-02-15T04:49:57;4.70;62.60
74511;DHT22;62991;50.040;18.400;2023-02-15T04:52:58;4.70;62.60
74511;DHT22;62991;50.040;18.400;2023-02-15T04:55:58;4.70;62.70
74511;DHT22;62991;50.040;18.400;2023-02-15T04:58:59;4.70;62.80
74511;DHT22;62991;50.040;18.400;2023-02-15T05:02:00;4.60;62.90
74511;DHT22;62991;50.040;18.400;2023-02-15T05:05:00;4.70;62.80
74511;DHT22;62991;50.040;18.400;2023-02-15T05:08:01;4.70;62.70
74511;DHT22;62991;50.040;18.400;2023-02-15T05:11:01;4.70;62.70
74511;DHT22;62991;50.040;18.400;2023-02-15T05:14:02;4.70;62.70
74511;DHT22;62991;50.040;18.400;2023-02-15T05:17:03;4.60;62.80
74511;DHT22;62991;50.040;18.400;2023-02-15T05:20:06;4.60;62.70
74511;DHT22;62991;50.040;18.400;2023-02-15T05:23:06;4.60;62.70
74511;DHT22;62991;50.040;18.400;2023-02-15T05:26:10;4.60;63.10
74511;DHT22;62991;50.040;18.400;2023-02-15T05:29:30;4.50;63.00
74511;DHT22;62991;50.040;18.400;2023-02-15T05:32:30;4.50;63.00
74511;DHT22;62991;50.040;18.400;2023-02-15T05:35:32;4.50;63.00
74511;DHT22;62991;50.040;18.400;2023-02-15T05:38:33;4.50;63.10
74511;DHT22;62991;50.040;18.400;2023-02-15T05:41:34;4.50;63.10
74511;DHT22;62991;50.040;18.400;2023-02-15T05:44:34;4.50;63.00
74511;DHT22;62991;50.040;18.400;2023-02-15T05:47:35;4.50;62.90
74511;DHT22;62991;50.040;18.400;2023-02-15T05:50:36;4.50;62.90
74511;DHT22;62991;50.040;18.400;2023-02-15T05:53:38;4.60;62.70
74511;DHT22;62991;50.040;18.400;2023-02-15T05:56:39;4.60;63.20
74511;DHT22;62991;50.040;18.400;2023-02-15T05:59:39;4.50;63.10
74511;DHT22;62991;50.040;18.400;2023-02-15T06:02:40;4.60;63.00
74511;DHT22;62991;50.040;18.400;2023-02-15T06:05:41;4.60;62.80
74511;DHT22;62991;50.040;18.400;2023-02-15T06:08:42;4.60;62.80
74511;DHT22;62991;50.040;18.400;2023-02-15T06:11:43;4.60;62.70
74511;DHT22;62991;50.040;18.400;2023-02-15T06:14:43;4.60;62.40
74511;DHT22;62991;50.040;18.400;2023-02-15T06:17:44;4.50;62.40
74511;DHT22;62991;50.040;18.400;2023-02-15T06:20:48;4.50;62.30
74511;DHT22;62991;50.040;18.400;2023-02-15T06:23:49;4.50;62.60
74511;DHT22;62991;50.040;18.400;2023-02-15T06:26:49;4.50;62.70
74511;DHT22;62991;50.040;18.400;2023-02-15T06:29:50;4.50;62.40
74511;DHT22;62991;50.040;18.400;2023-02-15T06:32:51;4.60;62.50
74511;DHT22;62991;50.040;18.400;2023-02-15T06:35:51;4.60;62.40
74511;DHT22;62991;50.040;18.400;2023-02-15T06:38:52;4.50;62.60
74511;DHT22;62991;50.040;18.400;2023-02-15T06:41:53;4.60;62.40
74511;DHT22;62991;50.040;18.400;2023-02-15T06:44:53;4.60;62.50
74511;DHT22;62991;50.040;18.400;2023-02-15T06:47:54;4.50;62.80
74511;DHT22;62991;50.040;18.400;2023-02-15T06:50:55;4.40;62.80
74511;DHT22;62991;50.040;18.400;2023-02-15T06:53:56;4.30;63.30
74511;DHT22;62991;50.040;18.400;2023-02-15T06:56:56;4.40;63.10
74511;DHT22;62991;50.040;18.400;2023-02-15T06:59:57;4.40;62.90
74511;DHT22;62991;50.040;18.400;2023-02-15T07:02:59;4.30;63.20
74511;DHT22;62991;50.040;18.400;2023-02-15T07:06:02;4.30;63.50
74511;DHT22;62991;50.040;18.400;2023-02-15T07:09:03;4.30;63.40
74511;DHT22;62991;50.040;18.400;2023-02-15T07:12:04;4.40;63.10
74511;DHT22;62991;50.040;18.400;2023-02-15T07:15:24;4.50;63.00
74511;DHT22;62991;50.040;18.400;2023-02-15T07:18:24;4.50;63.10
74511;DHT22;62991;50.040;18.400;2023-02-15T07:21:25;4.50;62.90
74511;DHT22;62991;50.040;18.400;2023-02-15T07:24:26;4.60;62.70
74511;DHT22;62991;50.040;18.400;2023-02-15T07:27:27;4.60;62.80
74511;DHT22;62991;50.040;18.400;2023-02-15T07:30:28;4.70;62.90
74511;DHT22;62991;50.040;18.400;2023-02-15T07:33:31;4.70;62.70
74511;DHT22;62991;50.040;18.400;2023-02-15T07:36:31;4.50;63.30
74511;DHT22;62991;50.040;18.400;2023-02-15T07:39:32;4.50;63.50
74511;DHT22;62991;50.040;18.400;2023-02-15T07:42:33;4.40;63.80
74511;DHT22;62991;50.040;18.400;2023-02-15T07:45:33;4.20;64.60
74511;DHT22;62991;50.040;18.400;2023-02-15T07:48:35;4.20;65.70
74511;DHT22;62991;50.040;18.400;2023-02-15T07:51:36;4.40;65.90
74511;DHT22;62991;50.040;18.400;2023-02-15T07:54:36;4.60;64.90
74511;DHT22;62991;50.040;18.400;2023-02-15T07:57:37;4.70;64.50
74511;DHT22;62991;50.040;18.400;2023-02-15T08:00:38;4.80;64.10
74511;DHT22;62991;50.040;18.400;2023-02-15T08:03:56;4.80;63.60
74511;DHT22;62991;50.040;18.400;2023-02-15T08:06:57;4.90;63.50
74511;DHT22;62991;50.040;18.400;2023-02-15T08:09:58;5.10;62.70
74511;DHT22;62991;50.040;18.400;2023-02-15T08:12:59;5.10;63.00
74511;DHT22;62991;50.040;18.400;2023-02-15T08:16:00;5.20;62.90
74511;DHT22;62991;50.040;18.400;2023-02-15T08:19:10;5.00;62.50
74511;DHT22;62991;50.040;18.400;2023-02-15T08:22:13;4.90;63.40
74511;DHT22;62991;50.040;18.400;2023-02-15T08:25:14;4.60;63.60
74511;DHT22;62991;50.040;18.400;2023-02-15T08:28:15;4.50;64.10
74511;DHT22;62991;50.040;18.400;2023-02-15T08:31:16;4.60;64.40
74511;DHT22;62991;50.040;18.400;2023-02-15T08:34:19;4.60;64.50
74511;DHT22;62991;50.040;18.400;2023-02-15T08:37:20;4.70;64.40
74511;DHT22;62991;50.040;18.400;2023-02-15T08:40:21;4.90;63.90
74511;DHT22;62991;50.040;18.400;2023-02-15T08:43:21;5.20;63.30
74511;DHT22;62991;50.040;18.400;2023-02-15T08:46:24;5.30;62.60
74511;DHT22;62991;50.040;18.400;2023-02-15T08:49:25;5.40;62.10
74511;DHT22;62991;50.040;18.400;2023-02-15T08:52:26;5.50;62.40
74511;DHT22;62991;50.040;18.400;2023-02-15T08:55:26;5.60;61.90
74511;DHT22;62991;50.040;18.400;2023-02-15T08:58:28;5.50;61.80
74511;DHT22;62991;50.040;18.400;2023-02-15T09:01:33;5.40;62.30
74511;DHT22;62991;50.040;18.400;2023-02-15T09:04:34;5.70;62.30
74511;DHT22;62991;50.040;18.400;2023-02-15T09:07:35;5.80;61.80
74511;DHT22;62991;50.040;18.400;2023-02-15T09:10:35;5.90;60.90
74511;DHT22;62991;50.040;18.400;2023-02-15T09:13:37;5.60;61.10
74511;DHT22;62991;50.040;18.400;2023-02-15T09:16:38;5.20;62.60
74511;DHT22;62991;50.040;18.400;2023-02-15T09:19:38;5.20;62.80
74511;DHT22;62991;50.040;18.400;2023-02-15T09:22:39;5.10;63.00
74511;DHT22;62991;50.040;18.400;2023-02-15T09:25:40;4.70;63.80
74511;DHT22;62991;50.040;18.400;2023-02-15T09:28:41;4.60;64.30
74511;DHT22;62991;50.040;18.400;2023-02-15T09:31:44;4.70;64.90
74511;DHT22;62991;50.040;18.400;2023-02-15T09:34:45;4.70;63.70
74511;DHT22;62991;50.040;18.400;2023-02-15T09:37:46;4.60;63.80
74511;DHT22;62991;50.040;18.400;2023-02-15T09:40:59;4.70;64.00
74511;DHT22;62991;50.040;18.400;2023-02-15T09:51:01;4.70;63.60
74511;DHT22;62991;50.040;18.400;2023-02-15T09:57:37;5.10;62.80
74511;DHT22;62991;50.040;18.400;2023-02-15T10:21:27;5.70;61.20
74511;DHT22;62991;50.040;18.400;2023-02-15T10:24:48;5.60;61.00
74511;DHT22;62991;50.040;18.400;2023-02-15T10:27:52;5.80;62.00
74511;DHT22;62991;50.040;18.400;2023-02-15T10:34:20;5.90;60.80
74511;DHT22;62991;50.040;18.400;2023-02-15T10:37:32;6.00;61.20
74511;DHT22;62991;50.040;18.400;2023-02-15T10:47:49;6.00;60.50
74511;DHT22;62991;50.040;18.400;2023-02-15T10:50:56;5.90;60.10
74511;DHT22;62991;50.040;18.400;2023-02-15T10:57:33;6.00;60.40
74511;DHT22;62991;50.040;18.400;2023-02-15T11:00:44;6.30;60.50
74511;DHT22;62991;50.040;18.400;2023-02-15T11:10:48;6.60;58.70
74511;DHT22;62991;50.040;18.400;2023-02-15T11:13:56;6.90;57.80
74511;DHT22;62991;50.040;18.400;2023-02-15T11:17:24;7.00;57.50
74511;DHT22;62991;50.040;18.400;2023-02-15T11:23:51;7.40;56.90
74511;DHT22;62991;50.040;18.400;2023-02-15T11:30:38;7.60;56.20
74511;DHT22;62991;50.040;18.400;2023-02-15T11:33:55;7.70;55.20
74511;DHT22;62991;50.040;18.400;2023-02-15T11:37:01;7.70;55.80
74511;DHT22;62991;50.040;18.400;2023-02-15T11:43:20;8.10;54.60
74511;DHT22;62991;50.040;18.400;2023-02-15T11:46:22;8.00;54.70
74511;DHT22;62991;50.040;18.400;2023-02-15T11:49:33;8.10;55.00
74511;DHT22;62991;50.040;18.400;2023-02-15T11:52:35;8.30;54.40
74511;DHT22;62991;50.040;18.400;2023-02-15T11:55:36;8.40;53.80
74511;DHT22;62991;50.040;18.400;2023-02-15T12:02:02;9.20;52.70
74511;DHT22;62991;50.040;18.400;2023-02-15T12:05:23;9.10;52.00
74511;DHT22;62991;50.040;18.400;2023-02-15T12:08:25;9.30;51.80
74511;DHT22;62991;50.040;18.400;2023-02-15T12:11:37;10.10;50.80
74511;DHT22;62991;50.040;18.400;2023-02-15T12:14:55;15.30;42.60
74511;DHT22;62991;50.040;18.400;2023-02-15T12:17:56;21.30;33.40
74511;DHT22;62991;50.040;18.400;2023-02-15T12:20:59;24.60;29.50
74511;DHT22;62991;50.040;18.400;2023-02-15T12:24:20;26.30;28.10
74511;DHT22;62991;50.040;18.400;2023-02-15T12:27:42;28.30;25.70
74511;DHT22;62991;50.040;18.400;2023-02-15T12:30:43;28.90;25.60
74511;DHT22;62991;50.040;18.400;2023-02-15T12:33:44;30.60;24.30
74511;DHT22;62991;50.040;18.400;2023-02-15T12:36:49;33.00;22.80
74511;DHT22;62991;50.040;18.400;2023-02-15T12:42:53;36.80;20.80
74511;DHT22;62991;50.040;18.400;2023-02-15T12:46:23;38.50;20.00
74511;DHT22;62991;50.040;18.400;2023-02-15T12:49:24;38.20;19.80
74511;DHT22;62991;50.040;18.400;2023-02-15T12:52:26;38.60;19.80
74511;DHT22;62991;50.040;18.400;2023-02-15T12:55:27;38.30;20.20
74511;DHT22;62991;50.040;18.400;2023-02-15T12:58:31;39.00;19.60
74511;DHT22;62991;50.040;18.400;2023-02-15T13:01:33;38.70;19.70
74511;DHT22;62991;50.040;18.400;2023-02-15T13:04:34;38.20;19.80
74511;DHT22;62991;50.040;18.400;2023-02-15T13:07:35;39.10;19.60
74511;DHT22;62991;50.040;18.400;2023-02-15T13:10:51;38.90;19.70
74511;DHT22;62991;50.040;18.400;2023-02-15T13:14:00;38.80;19.70
74511;DHT22;62991;50.040;18.400;2023-02-15T13:17:02;38.40;19.80
74511;DHT22;62991;50.040;18.400;2023-02-15T13:20:16;37.70;19.80
74511;DHT22;62991;50.040;18.400;2023-02-15T13:26:28;38.40;20.00
74511;DHT22;62991;50.040;18.400;2023-02-15T13:29:33;38.60;19.80
74511;DHT22;62991;50.040;18.400;2023-02-15T13:32:37;37.70;20.00
74511;DHT22;62991;50.040;18.400;2023-02-15T13:35:49;37.70;20.10
74511;DHT22;62991;50.040;18.400;2023-02-15T13:59:30;34.20;21.50
74511;DHT22;62991;50.040;18.400;2023-02-15T14:17:05;31.20;23.40
74511;DHT22;62991;50.040;18.400;2023-02-15T14:27:27;29.40;24.30
74511;DHT22;62991;50.040;18.400;2023-02-15T14:30:36;30.30;23.90
74511;DHT22;62991;50.040;18.400;2023-02-15T14:33:40;29.20;24.20
74511;DHT22;62991;50.040;18.400;2023-02-15T14:36:44;26.70;25.80
74511;DHT22;62991;50.040;18.400;2023-02-15T14:40:03;24.70;27.70
74511;DHT22;62991;50.040;18.400;2023-02-15T14:43:27;22.60;29.60
74511;DHT22;62991;50.040;18.400;2023-02-15T14:47:02;21.20;31.10
74511;DHT22;62991;50.040;18.400;2023-02-15T14:56:30;19.50;33.50
74511;DHT22;62991;50.040;18.400;2023-02-15T14:59:53;18.90;34.30
74511;DHT22;62991;50.040;18.400;2023-02-15T15:02:57;18.40;35.30
74511;DHT22;62991;50.040;18.400;2023-02-15T15:05:59;18.50;35.10
74511;DHT22;62991;50.040;18.400;2023-02-15T15:18:48;14.70;40.60
74511;DHT22;62991;50.040;18.400;2023-02-15T15:24:52;14.40;41.30
74511;DHT22;62991;50.040;18.400;2023-02-15T15:27:54;13.60;42.50
74511;DHT22;62991;50.040;18.400;2023-02-15T15:30:55;13.20;43.50
74511;DHT22;62991;50.040;18.400;2023-02-15T15:37:51;12.80;44.00
74511;DHT22;62991;50.040;18.400;2023-02-15T15:50:42;11.70;46.40
74511;DHT22;62991;50.040;18.400;2023-02-15T15:53:45;11.40;47.10
74511;DHT22;62991;50.040;18.400;2023-02-15T15:56:55;11.10;47.60
74511;DHT22;62991;50.040;18.400;2023-02-15T15:59:57;10.90;48.50
74511;DHT22;62991;50.040;18.400;2023-02-15T16:03:01;10.50;48.90
74511;DHT22;62991;50.040;18.400;2023-02-15T16:06:02;10.20;49.80
74511;DHT22;62991;50.040;18.400;2023-02-15T16:09:29;9.90;50.50
74511;DHT22;62991;50.040;18.400;2023-02-15T16:12:35;9.60;51.30
74511;DHT22;62991;50.040;18.400;2023-02-15T16:15:47;9.40;51.50
74511;DHT22;62991;50.040;18.400;2023-02-15T16:18:50;9.20;52.20
74511;DHT22;62991;50.040;18.400;2023-02-15T16:21:52;9.00;52.70
74511;DHT22;62991;50.040;18.400;2023-02-15T16:28:05;8.20;54.50
74511;DHT22;62991;50.040;18.400;2023-02-15T16:31:10;8.10;54.80
74511;DHT22;62991;50.040;18.400;2023-02-15T16:34:17;8.10;55.10
74511;DHT22;62991;50.040;18.400;2023-02-15T16:37:20;7.80;55.70
74511;DHT22;62991;50.040;18.400;2023-02-15T16:43:26;7.40;57.10
74511;DHT22;62991;50.040;18.400;2023-02-15T16:46:40;7.10;57.90
74511;DHT22;62991;50.040;18.400;2023-02-15T16:49:45;6.90;58.60
74511;DHT22;62991;50.040;18.400;2023-02-15T16:52:47;6.70;59.10
74511;DHT22;62991;50.040;18.400;2023-02-15T16:55:50;6.60;59.60
74511;DHT22;62991;50.040;18.400;2023-02-15T16:58:54;6.50;59.70
74511;DHT22;62991;50.040;18.400;2023-02-15T17:01:55;6.30;60.50
74511;DHT22;62991;50.040;18.400;2023-02-15T17:11:17;6.00;61.40
74511;DHT22;62991;50.040;18.400;2023-02-15T17:14:27;6.00;61.10
74511;DHT22;62991;50.040;18.400;2023-02-15T17:17:31;5.80;61.70
74511;DHT22;62991;50.040;18.400;2023-02-15T17:20:33;5.70;62.20
74511;DHT22;62991;50.040;18.400;2023-02-15T17:23:43;5.70;62.10
74511;DHT22;62991;50.040;18.400;2023-02-15T17:26:47;5.70;62.00
74511;DHT22;62991;50.040;18.400;2023-02-15T17:29:56;5.60;63.00
74511;DHT22;62991;50.040;18.400;2023-02-15T17:33:02;5.80;61.90
74511;DHT22;62991;50.040;18.400;2023-02-15T17:39:20;5.60;62.40
74511;DHT22;62991;50.040;18.400;2023-02-15T17:42:21;5.50;62.60
74511;DHT22;62991;50.040;18.400;2023-02-15T17:45:26;5.40;62.90
74511;DHT22;62991;50.040;18.400;2023-02-15T17:48:33;5.40;63.10
74511;DHT22;62991;50.040;18.400;2023-02-15T17:51:34;5.20;63.40
74511;DHT22;62991;50.040;18.400;2023-02-15T17:54:35;5.20;63.50
74511;DHT22;62991;50.040;18.400;2023-02-15T17:57:54;5.20;63.50
74511;DHT22;62991;50.040;18.400;2023-02-15T18:00:57;5.10;63.80
74511;DHT22;62991;50.040;18.400;2023-02-15T18:04:18;5.00;64.30
74511;DHT22;62991;50.040;18.400;2023-02-15T18:07:37;4.80;64.80
74511;DHT22;62991;50.040;18.400;2023-02-15T18:10:58;4.80;64.70
74511;DHT22;62991;50.040;18.400;2023-02-15T18:14:18;4.80;64.80
74511;DHT22;62991;50.040;18.400;2023-02-15T18:17:27;4.80;64.60
74511;DHT22;62991;50.040;18.400;2023-02-15T18:20:32;4.90;64.50
74511;DHT22;62991;50.040;18.400;2023-02-15T18:23:34;4.70;65.00
74511;DHT22;62991;50.040;18.400;2023-02-15T18:26:34;4.60;65.20
74511;DHT22;62991;50.040;18.400;2023-02-15T18:29:35;4.40;65.70
74511;DHT22;62991;50.040;18.400;2023-02-15T18:32:37;4.60;65.30
74511;DHT22;62991;50.040;18.400;2023-02-15T18:35:39;4.30;66.10
74511;DHT22;62991;50.040;18.400;2023-02-15T18:38:40;4.20;66.50
74511;DHT22;62991;50.040;18.400;2023-02-15T18:41:41;4.10;66.90
74511;DHT22;62991;50.040;18.400;2023-02-15T18:44:41;4.10;67.00
74511;DHT22;62991;50.040;18.400;2023-02-15T18:47:43;4.00;67.40
74511;DHT22;62991;50.040;18.400;2023-02-15T18:50:44;4.00;67.40
74511;DHT22;62991;50.040;18.400;2023-02-15T18:53:46;4.00;67.50
74511;DHT22;62991;50.040;18.400;2023-02-15T18:56:56;3.80;67.70
74511;DHT22;62991;50.040;18.400;2023-02-15T18:59:57;3.90;67.50
74511;DHT22;62991;50.040;18.400;2023-02-15T19:02:59;3.90;67.40
74511;DHT22;62991;50.040;18.400;2023-02-15T19:06:01;3.90;67.60
74511;DHT22;62991;50.040;18.400;2023-02-15T19:09:04;3.80;67.70
74511;DHT22;62991;50.040;18.400;2023-02-15T19:12:11;3.70;68.10
74511;DHT22;62991;50.040;18.400;2023-02-15T19:15:18;3.70;68.20
74511;DHT22;62991;50.040;18.400;2023-02-15T19:18:19;3.50;68.60
74511;DHT22;62991;50.040;18.400;2023-02-15T19:21:20;3.50;68.90
74511;DHT22;62991;50.040;18.400;2023-02-15T19:24:25;3.50;68.80
74511;DHT22;62991;50.040;18.400;2023-02-15T19:27:35;3.40;69.20
74511;DHT22;62991;50.040;18.400;2023-02-15T19:30:36;3.40;68.90
74511;DHT22;62991;50.040;18.400;2023-02-15T19:33:37;3.30;69.30
74511;DHT22;62991;50.040;18.400;2023-02-15T19:36:38;3.30;69.30
74511;DHT22;62991;50.040;18.400;2023-02-15T19:39:40;3.20;69.70
74511;DHT22;62991;50.040;18.400;2023-02-15T19:42:41;3.20;69.50
74511;DHT22;62991;50.040;18.400;2023-02-15T19:45:42;3.10;69.70
74511;DHT22;62991;50.040;18.400;2023-02-15T19:48:43;3.00;70.10
74511;DHT22;62991;50.040;18.400;2023-02-15T19:51:44;3.10;70.00
74511;DHT22;62991;50.040;18.400;2023-02-15T19:54:46;2.90;70.50
74511;DHT22;62991;50.040;18.400;2023-02-15T19:57:49;2.80;70.90
74511;DHT22;62991;50.040;18.400;2023-02-15T20:00:50;2.70;71.20
74511;DHT22;62991;50.040;18.400;2023-02-15T20:03:51;2.60;71.40
74511;DHT22;62991;50.040;18.400;2023-02-15T20:06:55;2.60;71.60
74511;DHT22;62991;50.040;18.400;2023-02-15T20:09:56;2.60;71.40
74511;DHT22;62991;50.040;18.400;2023-02-15T20:12:57;2.50;71.50
74511;DHT22;62991;50.040;18.400;2023-02-15T20:15:58;2.50;71.60
74511;DHT22;62991;50.040;18.400;2023-02-15T20:19:00;2.50;71.60
74511;DHT22;62991;50.040;18.400;2023-02-15T20:22:01;2.40;71.80
74511;DHT22;62991;50.040;18.400;2023-02-15T20:25:02;2.30;72.00
74511;DHT22;62991;50.040;18.400;2023-02-15T20:28:03;2.30;72.20
74511;DHT22;62991;50.040;18.400;2023-02-15T20:31:04;2.20;72.30
74511;DHT22;62991;50.040;18.400;2023-02-15T20:34:04;2.20;72.60
74511;DHT22;62991;50.040;18.400;2023-02-15T20:37:08;2.20;72.40
74511;DHT22;62991;50.040;18.400;2023-02-15T20:40:24;2.10;72.70
74511;DHT22;62991;50.040;18.400;2023-02-15T20:43:26;2.20;72.50
74511;DHT22;62991;50.040;18.400;2023-02-15T20:46:27;2.20;72.50
74511;DHT22;62991;50.040;18.400;2023-02-15T20:49:28;2.20;72.50
74511;DHT22;62991;50.040;18.400;2023-02-15T20:52:29;2.20;72.40
74511;DHT22;62991;50.040;18.400;2023-02-15T20:55:30;2.20;72.30
74511;DHT22;62991;50.040;18.400;2023-02-15T20:58:31;2.20;72.20
74511;DHT22;62991;50.040;18.400;2023-02-15T21:01:32;2.20;72.40
74511;DHT22;62991;50.040;18.400;2023-02-15T21:04:33;2.10;72.50
74511;DHT22;62991;50.040;18.400;2023-02-15T21:07:34;2.00;72.80
74511;DHT22;62991;50.040;18.400;2023-02-15T21:10:34;2.10;72.70
74511;DHT22;62991;50.040;18.400;2023-02-15T21:13:35;2.00;72.80
74511;DHT22;62991;50.040;18.400;2023-02-15T21:16:36;2.00;73.10
74511;DHT22;62991;50.040;18.400;2023-02-15T21:19:37;2.00;73.20
74511;DHT22;62991;50.040;18.400;2023-02-15T21:22:37;2.00;73.20
74511;DHT22;62991;50.040;18.400;2023-02-15T21:25:41;2.00;73.20
74511;DHT22;62991;50.040;18.400;2023-02-15T21:28:42;2.00;73.00
74511;DHT22;62991;50.040;18.400;2023-02-15T21:31:43;2.10;73.00
74511;DHT22;62991;50.040;18.400;2023-02-15T21:34:44;2.00;73.00
74511;DHT22;62991;50.040;18.400;2023-02-15T21:37:46;2.00;72.90
74511;DHT22;62991;50.040;18.400;2023-02-15T21:40:48;2.00;73.00
74511;DHT22;62991;50.040;18.400;2023-02-15T21:43:49;2.00;73.10
74511;DHT22;62991;50.040;18.400;2023-02-15T21:47:18;1.90;73.30
74511;DHT22;62991;50.040;18.400;2023-02-15T21:50:38;1.90;73.60
74511;DHT22;62991;50.040;18.400;2023-02-15T21:53:57;1.80;73.60
74511;DHT22;62991;50.040;18.400;2023-02-15T21:56:58;1.90;73.40
74511;DHT22;62991;50.040;18.400;2023-02-15T22:00:01;1.90;73.50
74511;DHT22;62991;50.040;18.400;2023-02-15T22:03:04;1.80;73.50
74511;DHT22;62991;50.040;18.400;2023-02-15T22:06:05;1.80;73.50
74511;DHT22;62991;50.040;18.400;2023-02-15T22:09:16;1.90;73.30
74511;DHT22;62991;50.040;18.400;2023-02-15T22:12:18;1.80;73.50
74511;DHT22;62991;50.040;18.400;2023-02-15T22:15:22;1.80;73.60
74511;DHT22;62991;50.040;18.400;2023-02-15T22:18:26;1.90;73.30
74511;DHT22;62991;50.040;18.400;2023-02-15T22:21:27;1.70;73.70
74511;DHT22;62991;50.040;18.400;2023-02-15T22:24:30;1.70;73.90
74511;DHT22;62991;50.040;18.400;2023-02-15T22:27:34;1.60;74.20
74511;DHT22;62991;50.040;18.400;2023-02-15T22:30:37;1.60;74.10